sensor_id;sensor_type;location;lat;lon;timestamp;temperature;humidity
37410;DHT22;23275;48.914;12.566;2022-10-28T00:00:20;10.30;99.90
37410;DHT22;23275;48.914;12.566;2022-10-28T00:02:46;10.30;99.90
37410;DHT22;23275;48.914;12.566;2022-10-28T00:05:12;10.40;99.90
37410;DHT22;23275;48.914;12.566;2022-10-28T00:07:38;10.40;99.90
37410;DHT22;23275;48.914;12.566;2022-10-28T00:10:04;10.40;99.90
37410;DHT22;23275;48.914;12.566;2022-10-28T00:12:29;10.50;99.90
37410;DHT22;23275;48.914;12.566;2022-10-28T00:14:58;10.60;99.90
37410;DHT22;23275;48.914;12.566;2022-10-28T00:17:24;10.60;99.90
37410;DHT22;23275;48.914;12.566;2022-10-28T00:19:50;10.70;99.90
37410;DHT22;23275;48.914;12.566;2022-10-28T00:22:15;10.60;99.90
37410;DHT22;23275;48.914;12.566;2022-10-28T00:24:41;10.60;99.90
37410;DHT22;23275;48.914;12.566;2022-10-28T00:27:06;10.60;99.90
37410;DHT22;23275;48.914;12.566;2022-10-28T00:29:32;10.60;99.90
37410;DHT22;23275;48.914;12.566;2022-10-28T00:31:57;10.60;99.90
37410;DHT22;23275;48.914;12.566;2022-10-28T00:34:23;10.60;99.90
37410;DHT22;23275;48.914;12.566;2022-10-28T00:36:48;10.60;99.90
37410;DHT22;23275;48.914;12.566;2022-10-28T00:39:19;10.50;99.90
37410;DHT22;23275;48.914;12.566;2022-10-28T00:41:51;10.40;99.90
37410;DHT22;23275;48.914;12.566;2022-10-28T00:44:40;10.40;99.90
37410;DHT22;23275;48.914;12.566;2022-10-28T00:47:28;10.30;99.90
37410;DHT22;23275;48.914;12.566;2022-10-28T00:50:14;10.10;99.90
37410;DHT22;23275;48.914;12.566;2022-10-28T00:52:42;10.00;99.90
37410;DHT22;23275;48.914;12.566;2022-10-28T00:55:08;9.90;99.90
37410;DHT22;23275;48.914;12.566;2022-10-28T00:57:36;9.80;99.90
37410;DHT22;23275;48.914;12.566;2022-10-28T01:00:06;9.70;99.90
37410;DHT22;23275;48.914;12.566;2022-10-28T01:02:42;9.60;99.90
37410;DHT22;23275;48.914;12.566;2022-10-28T01:05:09;9.50;99.90
37410;DHT22;23275;48.914;12.566;2022-10-28T01:07:35;9.40;99.90
37410;DHT22;23275;48.914;12.566;2022-10-28T01:10:00;9.40;99.90
37410;DHT22;23275;48.914;12.566;2022-10-28T01:12:32;9.40;99.90
37410;DHT22;23275;48.914;12.566;2022-10-28T01:23:39;9.70;99.90
37410;DHT22;23275;48.914;12.566;2022-10-28T01:32:01;10.00;99.90
37410;DHT22;23275;48.914;12.566;2022-10-28T01:42:41;9.90;99.90
37410;DHT22;23275;48.914;12.566;2022-10-28T01:45:19;9.80;99.90
37410;DHT22;23275;48.914;12.566;2022-10-28T01:48:11;9.70;99.90
37410;DHT22;23275;48.914;12.566;2022-10-28T01:53:16;9.70;99.90
37410;DHT22;23275;48.914;12.566;2022-10-28T01:55:45;9.60;99.90
37410;DHT22;23275;48.914;12.566;2022-10-28T01:58:16;9.60;99.90
37410;DHT22;23275;48.914;12.566;2022-10-28T02:00:44;9.60;99.90
37410;DHT22;23275;48.914;12.566;2022-10-28T02:03:10;9.60;99.90
37410;DHT22;23275;48.914;12.566;2022-10-28T02:05:49;9.60;99.90
37410;DHT22;23275;48.914;12.566;2022-10-28T02:08:52;9.60;99.90
37410;DHT22;23275;48.914;12.566;2022-10-28T02:14:16;9.70;99.90
37410;DHT22;23275;48.914;12.566;2022-10-28T02:16:50;9.70;99.90
37410;DHT22;23275;48.914;12.566;2022-10-28T02:19:32;9.70;99.90
37410;DHT22;23275;48.914;12.566;2022-10-28T02:30:12;9.80;99.90
37410;DHT22;23275;48.914;12.566;2022-10-28T02:32:45;9.80;99.90
37410;DHT22;23275;48.914;12.566;2022-10-28T02:35:31;9.80;99.90
37410;DHT22;23275;48.914;12.566;2022-10-28T02:38:01;9.80;99.90
37410;DHT22;23275;48.914;12.566;2022-10-28T02:40:29;9.90;99.90
37410;DHT22;23275;48.914;12.566;2022-10-28T02:43:00;9.90;99.90
37410;DHT22;23275;48.914;12.566;2022-10-28T02:45:40;9.90;99.90
37410;DHT22;23275;48.914;12.566;2022-10-28T02:48:20;9.90;99.90
37410;DHT22;23275;48.914;12.566;2022-10-28T02:50:53;9.90;99.90
37410;DHT22;23275;48.914;12.566;2022-10-28T02:53:29;9.90;99.90
37410;DHT22;23275;48.914;12.566;2022-10-28T02:55:59;9.90;99.90
37410;DHT22;23275;48.914;12.566;2022-10-28T02:58:25;9.90;99.90
37410;DHT22;23275;48.914;12.566;2022-10-28T03:00:51;9.90;99.90
37410;DHT22;23275;48.914;12.566;2022-10-28T03:03:17;9.90;99.90
37410;DHT22;23275;48.914;12.566;2022-10-28T03:05:43;9.90;99.90
37410;DHT22;23275;48.914;12.566;2022-10-28T03:08:08;9.90;99.90
37410;DHT22;23275;48.914;12.566;2022-10-28T03:10:34;9.90;99.90
37410;DHT22;23275;48.914;12.566;2022-10-28T03:12:59;9.90;99.90
37410;DHT22;23275;48.914;12.566;2022-10-28T03:15:25;9.90;99.90
37410;DHT22;23275;48.914;12.566;2022-10-28T03:17:50;9.80;99.90
37410;DHT22;23275;48.914;12.566;2022-10-28T03:20:16;9.80;99.90
37410;DHT22;23275;48.914;12.566;2022-10-28T03:22:42;9.70;99.90
37410;DHT22;23275;48.914;12.566;2022-10-28T03:25:08;9.60;99.90
37410;DHT22;23275;48.914;12.566;2022-10-28T03:27:34;9.50;99.90
37410;DHT22;23275;48.914;12.566;2022-10-28T03:29:59;9.30;99.90
37410;DHT22;23275;48.914;12.566;2022-10-28T03:32:25;9.10;99.90
37410;DHT22;23275;48.914;12.566;2022-10-28T03:34:50;8.90;99.90
37410;DHT22;23275;48.914;12.566;2022-10-28T03:37:16;8.90;99.90
37410;DHT22;23275;48.914;12.566;2022-10-28T03:39:41;8.90;99.90
37410;DHT22;23275;48.914;12.566;2022-10-28T03:42:07;8.90;99.90
37410;DHT22;23275;48.914;12.566;2022-10-28T03:44:32;9.10;99.90
37410;DHT22;23275;48.914;12.566;2022-10-28T03:46:58;9.30;99.90
37410;DHT22;23275;48.914;12.566;2022-10-28T03:49:23;9.40;99.90
37410;DHT22;23275;48.914;12.566;2022-10-28T03:51:49;9.40;99.90
37410;DHT22;23275;48.914;12.566;2022-10-28T03:54:14;9.40;99.90
37410;DHT22;23275;48.914;12.566;2022-10-28T03:56:40;9.50;99.90
37410;DHT22;23275;48.914;12.566;2022-10-28T03:59:08;9.50;99.90
37410;DHT22;23275;48.914;12.566;2022-10-28T04:01:34;9.50;99.90
37410;DHT22;23275;48.914;12.566;2022-10-28T04:03:59;9.60;99.90
37410;DHT22;23275;48.914;12.566;2022-10-28T04:06:25;9.60;99.90
37410;DHT22;23275;48.914;12.566;2022-10-28T04:08:50;9.60;99.90
37410;DHT22;23275;48.914;12.566;2022-10-28T04:11:16;9.60;99.90
37410;DHT22;23275;48.914;12.566;2022-10-28T04:13:41;9.70;99.90
37410;DHT22;23275;48.914;12.566;2022-10-28T04:16:07;9.70;99.90
37410;DHT22;23275;48.914;12.566;2022-10-28T04:18:32;9.70;99.90
37410;DHT22;23275;48.914;12.566;2022-10-28T04:21:00;9.60;99.90
37410;DHT22;23275;48.914;12.566;2022-10-28T04:23:25;9.60;99.90
37410;DHT22;23275;48.914;12.566;2022-10-28T04:25:54;9.50;99.90
37410;DHT22;23275;48.914;12.566;2022-10-28T04:28:20;9.50;99.90
37410;DHT22;23275;48.914;12.566;2022-10-28T04:30:48;9.50;99.90
37410;DHT22;23275;48.914;12.566;2022-10-28T04:33:14;9.50;99.90
37410;DHT22;23275;48.914;12.566;2022-10-28T04:35:40;9.50;99.90
37410;DHT22;23275;48.914;12.566;2022-10-28T04:38:08;9.60;99.90
37410;DHT22;23275;48.914;12.566;2022-10-28T04:40:35;9.60;99.90
37410;DHT22;23275;48.914;12.566;2022-10-28T04:43:00;9.60;99.90
37410;DHT22;23275;48.914;12.566;2022-10-28T04:45:26;9.60;99.90
37410;DHT22;23275;48.914;12.566;2022-10-28T04:47:59;9.50;99.90
37410;DHT22;23275;48.914;12.566;2022-10-28T04:50:26;9.50;99.90
37410;DHT22;23275;48.914;12.566;2022-10-28T04:52:52;9.50;99.90
37410;DHT22;23275;48.914;12.566;2022-10-28T04:55:18;9.30;99.90
37410;DHT22;23275;48.914;12.566;2022-10-28T04:57:52;9.30;99.90
37410;DHT22;23275;48.914;12.566;2022-10-28T05:00:18;9.30;99.90
37410;DHT22;23275;48.914;12.566;2022-10-28T05:02:44;9.30;99.90
37410;DHT22;23275;48.914;12.566;2022-10-28T05:05:09;9.30;99.90
37410;DHT22;23275;48.914;12.566;2022-10-28T05:07:35;9.40;99.90
37410;DHT22;23275;48.914;12.566;2022-10-28T05:10:00;9.50;99.90
37410;DHT22;23275;48.914;12.566;2022-10-28T05:12:26;9.60;99.90
37410;DHT22;23275;48.914;12.566;2022-10-28T05:14:51;9.60;99.90
37410;DHT22;23275;48.914;12.566;2022-10-28T05:17:17;9.70;99.90
37410;DHT22;23275;48.914;12.566;2022-10-28T05:19:42;9.70;99.90
37410;DHT22;23275;48.914;12.566;2022-10-28T05:22:09;9.70;99.90
37410;DHT22;23275;48.914;12.566;2022-10-28T05:24:35;9.80;99.90
37410;DHT22;23275;48.914;12.566;2022-10-28T05:27:00;9.80;99.90
37410;DHT22;23275;48.914;12.566;2022-10-28T05:29:26;9.70;99.90
37410;DHT22;23275;48.914;12.566;2022-10-28T05:31:51;9.70;99.90
37410;DHT22;23275;48.914;12.566;2022-10-28T05:34:17;9.70;99.90
37410;DHT22;23275;48.914;12.566;2022-10-28T05:36:43;9.70;99.90
37410;DHT22;23275;48.914;12.566;2022-10-28T05:39:08;9.70;99.90
37410;DHT22;23275;48.914;12.566;2022-10-28T05:41:34;9.80;99.90
37410;DHT22;23275;48.914;12.566;2022-10-28T05:43:59;9.80;99.90
37410;DHT22;23275;48.914;12.566;2022-10-28T05:46:25;9.80;99.90
37410;DHT22;23275;48.914;12.566;2022-10-28T05:48:50;9.80;99.90
37410;DHT22;23275;48.914;12.566;2022-10-28T05:51:16;9.80;99.90
37410;DHT22;23275;48.914;12.566;2022-10-28T05:53:42;9.70;99.90
37410;DHT22;23275;48.914;12.566;2022-10-28T05:56:09;9.70;99.90
37410;DHT22;23275;48.914;12.566;2022-10-28T05:58:34;9.80;99.90
37410;DHT22;23275;48.914;12.566;2022-10-28T06:01:00;9.80;99.90
37410;DHT22;23275;48.914;12.566;2022-10-28T06:03:25;9.90;99.90
37410;DHT22;23275;48.914;12.566;2022-10-28T06:05:51;9.90;99.90
37410;DHT22;23275;48.914;12.566;2022-10-28T06:08:18;9.90;99.90
37410;DHT22;23275;48.914;12.566;2022-10-28T06:10:49;9.90;99.90
37410;DHT22;23275;48.914;12.566;2022-10-28T06:13:16;9.90;99.90
37410;DHT22;23275;48.914;12.566;2022-10-28T06:15:41;9.90;99.90
37410;DHT22;23275;48.914;12.566;2022-10-28T06:18:07;9.90;99.90
37410;DHT22;23275;48.914;12.566;2022-10-28T06:20:32;10.00;99.90
37410;DHT22;23275;48.914;12.566;2022-10-28T06:22:58;10.10;99.90
37410;DHT22;23275;48.914;12.566;2022-10-28T06:25:25;10.10;99.90
37410;DHT22;23275;48.914;12.566;2022-10-28T06:27:52;10.20;99.90
37410;DHT22;23275;48.914;12.566;2022-10-28T06:30:18;10.30;99.90
37410;DHT22;23275;48.914;12.566;2022-10-28T06:32:43;10.30;99.90
37410;DHT22;23275;48.914;12.566;2022-10-28T06:35:09;10.40;99.90
37410;DHT22;23275;48.914;12.566;2022-10-28T06:37:34;10.40;99.90
37410;DHT22;23275;48.914;12.566;2022-10-28T06:40:00;10.40;99.90
37410;DHT22;23275;48.914;12.566;2022-10-28T06:42:25;10.50;99.90
37410;DHT22;23275;48.914;12.566;2022-10-28T06:44:51;10.60;99.90
37410;DHT22;23275;48.914;12.566;2022-10-28T06:47:17;10.60;99.90
37410;DHT22;23275;48.914;12.566;2022-10-28T06:49:42;10.60;99.90
37410;DHT22;23275;48.914;12.566;2022-10-28T06:52:08;10.70;99.90
37410;DHT22;23275;48.914;12.566;2022-10-28T06:54:33;10.70;99.90
37410;DHT22;23275;48.914;12.566;2022-10-28T06:56:59;10.90;99.90
37410;DHT22;23275;48.914;12.566;2022-10-28T06:59:24;11.00;99.90
37410;DHT22;23275;48.914;12.566;2022-10-28T07:01:50;11.10;99.90
37410;DHT22;23275;48.914;12.566;2022-10-28T07:04:15;11.20;99.90
37410;DHT22;23275;48.914;12.566;2022-10-28T07:06:41;11.20;99.90
37410;DHT22;23275;48.914;12.566;2022-10-28T07:09:07;11.30;99.90
37410;DHT22;23275;48.914;12.566;2022-10-28T07:11:33;11.30;99.90
37410;DHT22;23275;48.914;12.566;2022-10-28T07:13:59;11.30;99.90
37410;DHT22;23275;48.914;12.566;2022-10-28T07:16:25;11.30;99.90
37410;DHT22;23275;48.914;12.566;2022-10-28T07:18:50;11.40;99.90
37410;DHT22;23275;48.914;12.566;2022-10-28T07:21:16;11.50;99.90
37410;DHT22;23275;48.914;12.566;2022-10-28T07:23:42;11.60;99.90
37410;DHT22;23275;48.914;12.566;2022-10-28T07:26:10;11.70;99.90
37410;DHT22;23275;48.914;12.566;2022-10-28T07:28:36;11.80;99.90
37410;DHT22;23275;48.914;12.566;2022-10-28T07:31:02;11.90;99.90
37410;DHT22;23275;48.914;12.566;2022-10-28T07:33:27;12.10;99.90
37410;DHT22;23275;48.914;12.566;2022-10-28T07:35:53;12.30;99.90
37410;DHT22;23275;48.914;12.566;2022-10-28T07:38:19;12.40;99.90
37410;DHT22;23275;48.914;12.566;2022-10-28T07:40:44;12.60;99.90
37410;DHT22;23275;48.914;12.566;2022-10-28T07:43:10;12.70;99.90
37410;DHT22;23275;48.914;12.566;2022-10-28T07:45:35;12.90;99.90
37410;DHT22;23275;48.914;12.566;2022-10-28T07:48:02;13.20;99.90
37410;DHT22;23275;48.914;12.566;2022-10-28T07:50:27;13.40;99.90
37410;DHT22;23275;48.914;12.566;2022-10-28T07:52:53;13.60;99.90
37410;DHT22;23275;48.914;12.566;2022-10-28T07:55:18;13.80;99.90
37410;DHT22;23275;48.914;12.566;2022-10-28T07:57:46;14.20;99.90
37410;DHT22;23275;48.914;12.566;2022-10-28T08:00:11;14.60;99.90
37410;DHT22;23275;48.914;12.566;2022-10-28T08:02:37;14.90;99.90
37410;DHT22;23275;48.914;12.566;2022-10-28T08:05:03;15.00;99.90
37410;DHT22;23275;48.914;12.566;2022-10-28T08:07:29;15.20;99.90
37410;DHT22;23275;48.914;12.566;2022-10-28T08:09:56;15.60;99.90
37410;DHT22;23275;48.914;12.566;2022-10-28T08:12:22;15.90;99.90
37410;DHT22;23275;48.914;12.566;2022-10-28T08:14:47;16.20;99.90
37410;DHT22;23275;48.914;12.566;2022-10-28T08:17:13;16.50;99.90
37410;DHT22;23275;48.914;12.566;2022-10-28T08:19:38;16.70;99.90
37410;DHT22;23275;48.914;12.566;2022-10-28T08:22:04;17.20;99.90
37410;DHT22;23275;48.914;12.566;2022-10-28T08:24:31;18.10;99.90
37410;DHT22;23275;48.914;12.566;2022-10-28T08:26:56;18.70;99.90
37410;DHT22;23275;48.914;12.566;2022-10-28T08:29:22;19.20;99.90
37410;DHT22;23275;48.914;12.566;2022-10-28T08:31:47;19.60;99.90
37410;DHT22;23275;48.914;12.566;2022-10-28T08:34:13;19.10;99.90
37410;DHT22;23275;48.914;12.566;2022-10-28T08:36:38;18.10;99.90
37410;DHT22;23275;48.914;12.566;2022-10-28T08:39:04;17.50;99.90
37410;DHT22;23275;48.914;12.566;2022-10-28T08:50:21;17.60;99.90
37410;DHT22;23275;48.914;12.566;2022-10-28T08:52:59;18.00;99.90
37410;DHT22;23275;48.914;12.566;2022-10-28T08:55:32;18.00;99.90
37410;DHT22;23275;48.914;12.566;2022-10-28T08:58:18;18.50;99.90
37410;DHT22;23275;48.914;12.566;2022-10-28T09:00:52;18.70;99.90
37410;DHT22;23275;48.914;12.566;2022-10-28T09:03:23;18.80;99.90
37410;DHT22;23275;48.914;12.566;2022-10-28T09:06:04;18.70;99.90
37410;DHT22;23275;48.914;12.566;2022-10-28T09:08:35;18.30;99.90
37410;DHT22;23275;48.914;12.566;2022-10-28T09:21:55;19.60;99.90
37410;DHT22;23275;48.914;12.566;2022-10-28T09:24:52;20.90;99.90
37410;DHT22;23275;48.914;12.566;2022-10-28T09:27:46;20.60;99.90
37410;DHT22;23275;48.914;12.566;2022-10-28T09:30:21;19.90;99.90
37410;DHT22;23275;48.914;12.566;2022-10-28T09:35:46;18.60;99.90
37410;DHT22;23275;48.914;12.566;2022-10-28T09:41:05;18.70;99.90
37410;DHT22;23275;48.914;12.566;2022-10-28T09:43:33;19.30;99.90
37410;DHT22;23275;48.914;12.566;2022-10-28T09:46:07;20.50;99.90
37410;DHT22;23275;48.914;12.566;2022-10-28T09:48:40;20.30;99.90
37410;DHT22;23275;48.914;12.566;2022-10-28T09:54:00;19.10;99.90
37410;DHT22;23275;48.914;12.566;2022-10-28T09:56:27;19.40;99.90
37410;DHT22;23275;48.914;12.566;2022-10-28T09:58:56;19.10;99.90
37410;DHT22;23275;48.914;12.566;2022-10-28T10:01:22;18.80;99.90
37410;DHT22;23275;48.914;12.566;2022-10-28T10:03:49;18.50;99.90
37410;DHT22;23275;48.914;12.566;2022-10-28T10:06:36;18.10;99.90
37410;DHT22;23275;48.914;12.566;2022-10-28T10:09:03;17.60;99.90
37410;DHT22;23275;48.914;12.566;2022-10-28T10:11:39;17.30;99.90
37410;DHT22;23275;48.914;12.566;2022-10-28T10:14:10;17.00;99.90
37410;DHT22;23275;48.914;12.566;2022-10-28T10:16:46;16.90;99.90
37410;DHT22;23275;48.914;12.566;2022-10-28T10:19:13;16.70;99.90
37410;DHT22;23275;48.914;12.566;2022-10-28T10:21:44;16.60;99.90
37410;DHT22;23275;48.914;12.566;2022-10-28T10:24:27;16.50;99.90
37410;DHT22;23275;48.914;12.566;2022-10-28T10:26:54;16.60;99.90
37410;DHT22;23275;48.914;12.566;2022-10-28T10:29:21;16.60;99.90
37410;DHT22;23275;48.914;12.566;2022-10-28T10:31:48;16.60;99.90
37410;DHT22;23275;48.914;12.566;2022-10-28T10:34:27;16.60;99.90
37410;DHT22;23275;48.914;12.566;2022-10-28T10:36:55;16.60;99.90
37410;DHT22;23275;48.914;12.566;2022-10-28T10:39:26;16.60;99.90
37410;DHT22;23275;48.914;12.566;2022-10-28T10:41:53;16.60;99.90
37410;DHT22;23275;48.914;12.566;2022-10-28T10:49:27;16.80;99.90
37410;DHT22;23275;48.914;12.566;2022-10-28T10:52:00;16.90;99.90
37410;DHT22;23275;48.914;12.566;2022-10-28T10:54:29;17.10;99.90
37410;DHT22;23275;48.914;12.566;2022-10-28T10:57:15;17.30;99.90
37410;DHT22;23275;48.914;12.566;2022-10-28T10:59:48;17.40;99.90
37410;DHT22;23275;48.914;12.566;2022-10-28T11:02:32;17.50;99.90
37410;DHT22;23275;48.914;12.566;2022-10-28T11:05:02;17.60;99.90
37410;DHT22;23275;48.914;12.566;2022-10-28T11:07:29;17.50;99.90
37410;DHT22;23275;48.914;12.566;2022-10-28T11:09:56;17.50;99.90
37410;DHT22;23275;48.914;12.566;2022-10-28T11:12:28;17.40;99.90
37410;DHT22;23275;48.914;12.566;2022-10-28T11:15:01;17.40;99.90
37410;DHT22;23275;48.914;12.566;2022-10-28T11:17:29;17.50;99.90
37410;DHT22;23275;48.914;12.566;2022-10-28T11:19:57;17.60;99.90
37410;DHT22;23275;48.914;12.566;2022-10-28T11:22:36;17.80;99.90
37410;DHT22;23275;48.914;12.566;2022-10-28T11:25:18;17.90;99.90
37410;DHT22;23275;48.914;12.566;2022-10-28T11:30:22;17.90;99.90
37410;DHT22;23275;48.914;12.566;2022-10-28T11:43:51;18.40;99.90
37410;DHT22;23275;48.914;12.566;2022-10-28T11:49:29;18.40;99.90
37410;DHT22;23275;48.914;12.566;2022-10-28T11:54:39;18.20;99.90
37410;DHT22;23275;48.914;12.566;2022-10-28T11:57:16;18.00;99.90
37410;DHT22;23275;48.914;12.566;2022-10-28T12:05:22;17.30;99.90
37410;DHT22;23275;48.914;12.566;2022-10-28T12:11:08;17.20;99.90
37410;DHT22;23275;48.914;12.566;2022-10-28T12:19:00;17.20;99.90
37410;DHT22;23275;48.914;12.566;2022-10-28T12:21:30;17.20;99.90
37410;DHT22;23275;48.914;12.566;2022-10-28T12:23:57;17.30;99.90
37410;DHT22;23275;48.914;12.566;2022-10-28T12:26:41;17.30;99.90
37410;DHT22;23275;48.914;12.566;2022-10-28T12:29:29;17.40;99.90
37410;DHT22;23275;48.914;12.566;2022-10-28T12:32:06;17.60;99.90
37410;DHT22;23275;48.914;12.566;2022-10-28T12:34:41;17.80;99.90
37410;DHT22;23275;48.914;12.566;2022-10-28T12:37:15;18.00;99.90
37410;DHT22;23275;48.914;12.566;2022-10-28T12:42:24;18.30;99.90
37410;DHT22;23275;48.914;12.566;2022-10-28T12:44:55;18.40;99.90
37410;DHT22;23275;48.914;12.566;2022-10-28T12:55:41;18.80;99.90
37410;DHT22;23275;48.914;12.566;2022-10-28T12:58:16;18.90;99.90
37410;DHT22;23275;48.914;12.566;2022-10-28T13:00:46;19.00;99.90
37410;DHT22;23275;48.914;12.566;2022-10-28T13:03:14;19.00;99.90
37410;DHT22;23275;48.914;12.566;2022-10-28T13:05:50;19.00;99.90
37410;DHT22;23275;48.914;12.566;2022-10-28T13:08:55;18.80;99.90
37410;DHT22;23275;48.914;12.566;2022-10-28T13:11:38;18.70;99.90
37410;DHT22;23275;48.914;12.566;2022-10-28T13:17:03;18.20;99.90
37410;DHT22;23275;48.914;12.566;2022-10-28T13:22:38;17.90;99.90
37410;DHT22;23275;48.914;12.566;2022-10-28T13:25:27;17.90;99.90
37410;DHT22;23275;48.914;12.566;2022-10-28T13:27:59;17.90;99.90
37410;DHT22;23275;48.914;12.566;2022-10-28T13:30:25;18.00;99.90
37410;DHT22;23275;48.914;12.566;2022-10-28T13:33:08;18.10;99.90
37410;DHT22;23275;48.914;12.566;2022-10-28T13:35:40;18.10;99.90
37410;DHT22;23275;48.914;12.566;2022-10-28T13:38:09;18.20;99.90
37410;DHT22;23275;48.914;12.566;2022-10-28T13:43:19;18.30;99.90
37410;DHT22;23275;48.914;12.566;2022-10-28T13:45:53;18.30;99.90
37410;DHT22;23275;48.914;12.566;2022-10-28T13:53:39;18.40;99.90
37410;DHT22;23275;48.914;12.566;2022-10-28T14:01:44;18.50;99.90
37410;DHT22;23275;48.914;12.566;2022-10-28T14:04:34;18.60;99.90
37410;DHT22;23275;48.914;12.566;2022-10-28T14:09:36;18.60;99.90
37410;DHT22;23275;48.914;12.566;2022-10-28T14:12:13;18.60;99.90
37410;DHT22;23275;48.914;12.566;2022-10-28T14:15:15;18.50;99.90
37410;DHT22;23275;48.914;12.566;2022-10-28T14:20:36;18.30;99.90
37410;DHT22;23275;48.914;12.566;2022-10-28T14:31:31;17.60;99.90
37410;DHT22;23275;48.914;12.566;2022-10-28T14:36:33;17.40;99.90
37410;DHT22;23275;48.914;12.566;2022-10-28T14:42:38;17.30;99.90
37410;DHT22;23275;48.914;12.566;2022-10-28T14:45:25;17.20;99.90
37410;DHT22;23275;48.914;12.566;2022-10-28T14:50:51;17.20;99.90
37410;DHT22;23275;48.914;12.566;2022-10-28T14:53:28;17.10;99.90
37410;DHT22;23275;48.914;12.566;2022-10-28T14:56:06;17.00;99.90
37410;DHT22;23275;48.914;12.566;2022-10-28T14:58:40;17.00;99.90
37410;DHT22;23275;48.914;12.566;2022-10-28T15:01:27;17.00;99.90
37410;DHT22;23275;48.914;12.566;2022-10-28T15:04:00;17.00;99.90
37410;DHT22;23275;48.914;12.566;2022-10-28T15:06:39;16.90;99.90
37410;DHT22;23275;48.914;12.566;2022-10-28T15:09:14;16.80;99.90
37410;DHT22;23275;48.914;12.566;2022-10-28T15:11:42;16.80;99.90
37410;DHT22;23275;48.914;12.566;2022-10-28T15:14:21;16.60;99.90
37410;DHT22;23275;48.914;12.566;2022-10-28T15:16:48;16.60;99.90
37410;DHT22;23275;48.914;12.566;2022-10-28T15:19:18;16.50;99.90
37410;DHT22;23275;48.914;12.566;2022-10-28T15:22:21;16.40;99.90
37410;DHT22;23275;48.914;12.566;2022-10-28T15:27:26;16.30;99.90
37410;DHT22;23275;48.914;12.566;2022-10-28T15:29:52;16.20;99.90
37410;DHT22;23275;48.914;12.566;2022-10-28T15:34:47;16.10;99.90
37410;DHT22;23275;48.914;12.566;2022-10-28T15:37:17;16.00;99.90
37410;DHT22;23275;48.914;12.566;2022-10-28T15:39:43;16.00;99.90
37410;DHT22;23275;48.914;12.566;2022-10-28T15:44:58;16.00;99.90
37410;DHT22;23275;48.914;12.566;2022-10-28T15:47:33;15.90;99.90
37410;DHT22;23275;48.914;12.566;2022-10-28T15:52:43;15.90;99.90
37410;DHT22;23275;48.914;12.566;2022-10-28T15:57:57;15.70;99.90
37410;DHT22;23275;48.914;12.566;2022-10-28T16:00:25;15.70;99.90
37410;DHT22;23275;48.914;12.566;2022-10-28T16:03:03;15.60;99.90
37410;DHT22;23275;48.914;12.566;2022-10-28T16:05:41;15.60;99.90
37410;DHT22;23275;48.914;12.566;2022-10-28T16:10:47;15.50;99.90
37410;DHT22;23275;48.914;12.566;2022-10-28T16:13:18;15.50;99.90
37410;DHT22;23275;48.914;12.566;2022-10-28T16:15:52;15.50;99.90
37410;DHT22;23275;48.914;12.566;2022-10-28T16:18:19;15.50;99.90
37410;DHT22;23275;48.914;12.566;2022-10-28T16:20:45;15.50;99.90
37410;DHT22;23275;48.914;12.566;2022-10-28T16:23:20;15.40;99.90
37410;DHT22;23275;48.914;12.566;2022-10-28T16:25:47;15.40;99.90
37410;DHT22;23275;48.914;12.566;2022-10-28T16:28:24;15.40;99.90
37410;DHT22;23275;48.914;12.566;2022-10-28T16:30:56;15.50;99.90
37410;DHT22;23275;48.914;12.566;2022-10-28T16:33:33;15.50;99.90
37410;DHT22;23275;48.914;12.566;2022-10-28T16:36:00;15.50;99.90
37410;DHT22;23275;48.914;12.566;2022-10-28T16:38:27;15.60;99.90
37410;DHT22;23275;48.914;12.566;2022-10-28T16:40:53;15.60;99.90
37410;DHT22;23275;48.914;12.566;2022-10-28T16:43:22;15.50;99.90
37410;DHT22;23275;48.914;12.566;2022-10-28T16:45:49;15.50;99.90
37410;DHT22;23275;48.914;12.566;2022-10-28T16:48:16;15.60;99.90
37410;DHT22;23275;48.914;12.566;2022-10-28T16:50:46;15.60;99.90
37410;DHT22;23275;48.914;12.566;2022-10-28T16:53:12;15.60;99.90
37410;DHT22;23275;48.914;12.566;2022-10-28T16:55:38;15.60;99.90
37410;DHT22;23275;48.914;12.566;2022-10-28T16:58:04;15.60;99.90
37410;DHT22;23275;48.914;12.566;2022-10-28T17:00:29;15.60;99.90
37410;DHT22;23275;48.914;12.566;2022-10-28T17:02:55;15.60;99.90
37410;DHT22;23275;48.914;12.566;2022-10-28T17:05:22;15.60;99.90
37410;DHT22;23275;48.914;12.566;2022-10-28T17:07:48;15.60;99.90
37410;DHT22;23275;48.914;12.566;2022-10-28T17:10:15;15.50;99.90
37410;DHT22;23275;48.914;12.566;2022-10-28T17:12:41;15.50;99.90
37410;DHT22;23275;48.914;12.566;2022-10-28T17:15:07;15.40;99.90
37410;DHT22;23275;48.914;12.566;2022-10-28T17:17:34;15.40;99.90
37410;DHT22;23275;48.914;12.566;2022-10-28T17:20:00;15.30;99.90
37410;DHT22;23275;48.914;12.566;2022-10-28T17:22:26;15.40;99.90
37410;DHT22;23275;48.914;12.566;2022-10-28T17:24:51;15.30;99.90
37410;DHT22;23275;48.914;12.566;2022-10-28T17:27:18;15.30;99.90
37410;DHT22;23275;48.914;12.566;2022-10-28T17:29:44;15.30;99.90
37410;DHT22;23275;48.914;12.566;2022-10-28T17:32:10;15.30;99.90
37410;DHT22;23275;48.914;12.566;2022-10-28T17:34:36;15.20;99.90
37410;DHT22;23275;48.914;12.566;2022-10-28T17:37:02;15.20;99.90
37410;DHT22;23275;48.914;12.566;2022-10-28T17:39:27;15.20;99.90
37410;DHT22;23275;48.914;12.566;2022-10-28T17:41:53;15.10;99.90
37410;DHT22;23275;48.914;12.566;2022-10-28T17:44:18;15.00;99.90
37410;DHT22;23275;48.914;12.566;2022-10-28T17:46:50;14.90;99.90
37410;DHT22;23275;48.914;12.566;2022-10-28T17:49:16;14.90;99.90
37410;DHT22;23275;48.914;12.566;2022-10-28T17:51:42;14.90;99.90
37410;DHT22;23275;48.914;12.566;2022-10-28T17:54:07;14.90;99.90
37410;DHT22;23275;48.914;12.566;2022-10-28T17:56:33;14.80;99.90
37410;DHT22;23275;48.914;12.566;2022-10-28T17:59:00;14.80;99.90
37410;DHT22;23275;48.914;12.566;2022-10-28T18:01:26;14.80;99.90
37410;DHT22;23275;48.914;12.566;2022-10-28T18:03:52;14.80;99.90
37410;DHT22;23275;48.914;12.566;2022-10-28T18:06:18;14.80;99.90
37410;DHT22;23275;48.914;12.566;2022-10-28T18:08:44;14.70;99.90
37410;DHT22;23275;48.914;12.566;2022-10-28T18:11:11;14.70;99.90
37410;DHT22;23275;48.914;12.566;2022-10-28T18:13:39;14.60;99.90
37410;DHT22;23275;48.914;12.566;2022-10-28T18:16:11;14.60;99.90
37410;DHT22;23275;48.914;12.566;2022-10-28T18:18:37;14.60;99.90
37410;DHT22;23275;48.914;12.566;2022-10-28T18:21:03;14.50;99.90
37410;DHT22;23275;48.914;12.566;2022-10-28T18:23:28;14.50;99.90
37410;DHT22;23275;48.914;12.566;2022-10-28T18:26:01;14.40;99.90